createdAt,value
2023-03-28T00:02:18.822Z,102376.50
2023-03-28T00:04:49.976Z,102372.16
2023-03-28T00:07:17.212Z,102373.88
2023-03-28T00:09:44.781Z,102373.78
2023-03-28T00:12:11.968Z,102365.88
2023-03-28T00:14:42.866Z,102367.22
2023-03-28T00:17:13.856Z,102370.66
2023-03-28T00:19:50.970Z,102366.66
2023-03-28T00:22:21.588Z,102370.50
2023-03-28T00:24:50.978Z,102368.59
2023-03-28T00:27:21.116Z,102370.34
2023-03-28T00:29:51.796Z,102368.59
2023-03-28T00:32:25.044Z,102377.34
2023-03-28T00:34:54.898Z,102368.50
2023-03-28T00:37:23.063Z,102369.31
2023-03-28T00:39:50.964Z,102378.31
2023-03-28T00:42:23.539Z,102373.53
2023-03-28T00:44:59.371Z,102375.84
2023-03-28T00:47:50.055Z,102379.09
2023-03-28T00:50:31.707Z,102372.81
2023-03-28T00:53:10.658Z,102375.38
2023-03-28T00:55:47.148Z,102376.91
2023-03-28T00:58:18.280Z,102384.31
2023-03-28T01:00:49.345Z,102380.59
2023-03-28T01:03:19.376Z,102374.47
2023-03-28T01:05:48.207Z,102366.53
2023-03-28T01:08:25.781Z,102373.28
2023-03-28T01:10:55.288Z,102369.84
2023-03-28T01:13:30.099Z,102367.91
2023-03-28T01:15:59.750Z,102363.81
2023-03-28T01:18:27.736Z,102365.00
2023-03-28T01:21:13.720Z,102363.16
2023-03-28T01:23:43.924Z,102366.66
2023-03-28T01:26:28.322Z,102360.28
2023-03-28T01:29:36.999Z,102362.06
2023-03-28T01:32:13.176Z,102352.38
2023-03-28T01:35:04.394Z,102353.47
2023-03-28T01:38:09.219Z,102351.59
2023-03-28T01:40:36.414Z,102349.94
2023-03-28T01:43:51.342Z,102341.81
2023-03-28T01:46:27.493Z,102343.94
2023-03-28T01:48:57.183Z,102346.16
2023-03-28T01:51:36.134Z,102350.72
2023-03-28T01:54:25.088Z,102338.97
2023-03-28T01:57:13.637Z,102339.88
2023-03-28T02:00:13.929Z,102334.09
2023-03-28T02:03:14.542Z,102339.75
2023-03-28T02:06:01.889Z,102329.78
2023-03-28T02:08:34.902Z,102331.50
2023-03-28T02:11:26.847Z,102337.16
2023-03-28T02:14:19.132Z,102334.91
2023-03-28T02:17:15.674Z,102327.94
2023-03-28T02:20:11.779Z,102330.25
2023-03-28T02:23:18.517Z,102321.88
2023-03-28T02:26:09.212Z,102326.38
2023-03-28T02:29:02.861Z,102327.59
2023-03-28T02:31:36.648Z,102321.78
2023-03-28T02:34:04.390Z,102321.03
2023-03-28T02:36:41.885Z,102315.88
2023-03-28T02:39:39.314Z,102322.56
2023-03-28T02:42:28.588Z,102316.72
2023-03-28T02:45:14.887Z,102323.75
2023-03-28T02:47:56.961Z,102321.72
2023-03-28T02:51:04.203Z,102327.63
2023-03-28T02:54:11.080Z,102323.56
2023-03-28T02:56:51.260Z,102322.28
2023-03-28T03:02:44.724Z,102323.50
2023-03-28T03:05:12.008Z,102324.22
2023-03-28T03:07:40.982Z,102322.56
2023-03-28T03:10:10.610Z,102324.34
2023-03-28T03:12:38.278Z,102320.41
2023-03-28T03:15:13.077Z,102313.72
2023-03-28T03:17:52.856Z,102324.06
2023-03-28T03:20:27.151Z,102325.56
2023-03-28T03:22:57.506Z,102326.19
2023-03-28T03:25:24.702Z,102316.69
2023-03-28T03:27:57.178Z,102327.13
2023-03-28T03:30:24.350Z,102323.09
2023-03-28T03:33:10.755Z,102313.09
2023-03-28T03:35:42.328Z,102314.63
2023-03-28T03:38:09.667Z,102322.09
2023-03-28T03:40:36.859Z,102317.38
2023-03-28T03:43:09.685Z,102314.78
2023-03-28T03:45:40.802Z,102325.53
2023-03-28T03:48:11.911Z,102327.97
2023-03-28T03:50:42.713Z,102325.22
2023-03-28T03:53:15.945Z,102332.03
2023-03-28T03:55:50.913Z,102331.50
2023-03-28T03:58:20.399Z,102340.56
2023-03-28T04:00:49.341Z,102340.00
2023-03-28T04:03:30.968Z,102337.00
2023-03-28T04:05:58.549Z,102330.56
2023-03-28T04:08:26.007Z,102335.06
2023-03-28T04:10:53.327Z,102325.59
2023-03-28T04:13:21.118Z,102322.63
2023-03-28T04:15:53.672Z,102321.97
2023-03-28T04:18:38.928Z,102320.09
2023-03-28T04:21:09.849Z,102326.81
2023-03-28T04:23:48.485Z,102328.06
2023-03-28T04:26:45.365Z,102334.69
2023-03-28T04:29:13.664Z,102321.41
2023-03-28T04:31:50.261Z,102329.53
2023-03-28T04:34:39.063Z,102331.09
2023-03-28T04:37:12.066Z,102336.75
2023-03-28T04:39:49.188Z,102342.38
2023-03-28T04:42:35.803Z,102339.50
2023-03-28T04:45:13.731Z,102339.06
2023-03-28T04:47:42.933Z,102343.72
2023-03-28T04:50:16.885Z,102346.72
2023-03-28T04:52:44.697Z,102340.59
2023-03-28T04:55:12.136Z,102344.63
2023-03-28T04:57:40.564Z,102324.19
2023-03-28T05:00:10.688Z,102329.88
2023-03-28T05:03:14.933Z,102332.41
2023-03-28T05:05:53.415Z,102336.88
2023-03-28T05:08:23.861Z,102355.78
2023-03-28T05:10:55.447Z,102348.75
2023-03-28T05:13:23.908Z,102348.69
2023-03-28T05:16:02.238Z,102340.50
2023-03-28T05:18:48.161Z,102351.69
2023-03-28T05:21:19.904Z,102356.66
2023-03-28T05:23:53.456Z,102357.00
2023-03-28T05:26:24.852Z,102361.84
2023-03-28T05:28:52.023Z,102359.69
2023-03-28T05:31:21.867Z,102365.34
2023-03-28T05:34:10.124Z,102364.84
2023-03-28T05:36:44.696Z,102373.81
2023-03-28T05:39:21.978Z,102378.63
2023-03-28T05:41:50.895Z,102386.97
2023-03-28T05:44:20.404Z,102385.16
2023-03-28T05:47:07.530Z,102392.94
2023-03-28T05:49:34.864Z,102396.63
2023-03-28T05:52:02.901Z,102396.81
2023-03-28T05:54:30.520Z,102398.25
2023-03-28T05:56:57.660Z,102409.50
2023-03-28T05:59:26.234Z,102409.75
2023-03-28T06:01:53.658Z,102412.72
2023-03-28T06:04:21.991Z,102416.31
2023-03-28T06:06:51.434Z,102418.09
2023-03-28T06:09:25.023Z,102427.09
2023-03-28T06:11:59.856Z,102421.00
2023-03-28T06:14:27.888Z,102431.03
2023-03-28T06:16:57.870Z,102415.59
2023-03-28T06:19:27.559Z,102428.34
2023-03-28T06:21:58.876Z,102433.63
2023-03-28T06:24:26.186Z,102437.59
2023-03-28T06:26:54.927Z,102443.66
2023-03-28T06:29:24.453Z,102441.13
2023-03-28T06:31:59.946Z,102442.44
2023-03-28T06:34:30.063Z,102448.34
2023-03-28T06:37:02.031Z,102442.53
2023-03-28T06:39:45.702Z,102449.59
2023-03-28T06:42:15.338Z,102455.34
2023-03-28T06:44:52.843Z,102461.06
2023-03-28T06:47:37.311Z,102466.75
2023-03-28T06:50:05.778Z,102462.19
2023-03-28T06:52:55.792Z,102474.56
2023-03-28T06:55:23.185Z,102475.72
2023-03-28T06:57:53.015Z,102469.09
2023-03-28T07:00:44.642Z,102482.22
2023-03-28T07:03:32.829Z,102490.59
2023-03-28T07:06:06.207Z,102493.16
2023-03-28T07:08:33.645Z,102485.84
2023-03-28T07:11:03.112Z,102481.59
2023-03-28T07:13:31.096Z,102480.41
2023-03-28T07:16:12.869Z,102474.66
2023-03-28T07:18:43.710Z,102489.19
2023-03-28T07:21:19.310Z,102493.16
2023-03-28T07:23:46.968Z,102484.97
2023-03-28T07:26:19.587Z,102481.31
2023-03-28T07:28:46.739Z,102490.44
2023-03-28T07:31:14.180Z,102491.28
2023-03-28T07:33:41.491Z,102488.16
2023-03-28T07:36:15.881Z,102494.00
2023-03-28T07:38:48.459Z,102504.09
2023-03-28T07:41:17.174Z,102510.06
2023-03-28T07:43:45.027Z,102512.06
2023-03-28T07:46:16.797Z,102520.47
2023-03-28T07:48:49.362Z,102524.19
2023-03-28T07:51:19.835Z,102521.75
2023-03-28T07:53:47.186Z,102520.88
2023-03-28T07:56:15.094Z,102521.13
2023-03-28T07:59:05.795Z,102522.16
2023-03-28T08:01:33.712Z,102523.97
2023-03-28T08:04:05.608Z,102524.75
2023-03-28T08:06:42.215Z,102535.94
2023-03-28T08:09:11.942Z,102525.81
2023-03-28T08:11:45.452Z,102538.09
2023-03-28T08:14:15.469Z,102544.66
2023-03-28T08:16:44.133Z,102545.28
2023-03-28T08:19:12.252Z,102560.66
2023-03-28T08:22:14.482Z,102557.72
2023-03-28T08:24:51.448Z,102564.69
2023-03-28T08:27:21.732Z,102558.44
2023-03-28T08:29:53.017Z,102556.34
2023-03-28T08:32:20.381Z,102554.34
2023-03-28T08:34:48.292Z,102558.75
2023-03-28T08:37:18.615Z,102550.81
2023-03-28T08:39:48.854Z,102548.31
2023-03-28T08:42:57.292Z,102546.28
2023-03-28T08:45:43.448Z,102549.78
2023-03-28T08:48:28.315Z,102557.22
2023-03-28T08:51:18.373Z,102550.03
2023-03-28T08:54:19.686Z,102558.47
2023-03-28T08:56:58.091Z,102555.28
2023-03-28T09:00:09.333Z,102562.53
2023-03-28T09:02:36.797Z,102566.44
2023-03-28T09:05:25.198Z,102558.59
2023-03-28T09:08:20.809Z,102549.72
2023-03-28T09:11:04.890Z,102563.00
2023-03-28T09:13:50.571Z,102563.16
2023-03-28T09:16:45.749Z,102567.00
2023-03-28T09:19:53.070Z,102566.22
2023-03-28T09:23:22.602Z,102573.53
2023-03-28T09:26:33.149Z,102561.44
2023-03-28T09:29:09.230Z,102563.38
2023-03-28T09:31:49.660Z,102558.53
2023-03-28T09:34:27.879Z,102556.97
2023-03-28T09:37:05.941Z,102556.72
2023-03-28T09:39:45.319Z,102560.69
2023-03-28T09:42:45.052Z,102566.34
2023-03-28T09:46:12.181Z,102561.59
2023-03-28T09:49:02.174Z,102557.19
2023-03-28T09:51:32.913Z,102558.31
2023-03-28T09:54:06.225Z,102557.81
2023-03-28T09:56:38.052Z,102552.88
2023-03-28T09:59:31.183Z,102565.69
2023-03-28T10:02:07.751Z,102560.41
2023-03-28T10:04:40.181Z,102557.06
2023-03-28T10:07:48.489Z,102549.06
2023-03-28T10:10:25.397Z,102542.53
2023-03-28T10:13:04.830Z,102543.44
2023-03-28T10:15:40.836Z,102550.03
2023-03-28T10:18:22.138Z,102550.63
2023-03-28T10:21:18.873Z,102549.00
2023-03-28T10:24:02.599Z,102555.75
2023-03-28T10:26:34.406Z,102547.31
2023-03-28T10:29:09.232Z,102556.31
2023-03-28T10:31:39.768Z,102556.44
2023-03-28T10:34:31.262Z,102549.34
2023-03-28T10:37:04.506Z,102555.03
2023-03-28T10:40:02.698Z,102553.13
2023-03-28T10:42:57.480Z,102550.66
2023-03-28T10:45:51.649Z,102550.88
2023-03-28T10:48:42.084Z,102559.84
2023-03-28T10:51:19.811Z,102561.72
2023-03-28T10:53:57.309Z,102561.09
2023-03-28T10:56:42.968Z,102542.97
2023-03-28T10:59:41.510Z,102551.09
2023-03-28T11:02:23.170Z,102552.25
2023-03-28T11:05:02.112Z,102553.06
2023-03-28T11:07:54.977Z,102559.53
2023-03-28T11:11:37.231Z,102563.78
2023-03-28T11:14:45.195Z,102566.66
2023-03-28T11:17:25.034Z,102569.22
2023-03-28T11:20:00.548Z,102566.31
2023-03-28T11:23:06.225Z,102549.81
2023-03-28T11:25:58.059Z,102556.25
2023-03-28T11:29:13.983Z,102559.97
2023-03-28T11:32:13.500Z,102555.75
2023-03-28T11:34:52.761Z,102556.03
2023-03-28T11:37:29.880Z,102543.13
2023-03-28T11:40:19.995Z,102567.66
2023-03-28T11:43:05.117Z,102569.00
2023-03-28T11:45:52.942Z,102571.03
2023-03-28T11:48:31.536Z,102558.69
2023-03-28T11:51:27.785Z,102555.03
2023-03-28T11:54:09.866Z,102566.22
2023-03-28T11:57:29.629Z,102554.28
2023-03-28T12:00:32.143Z,102551.59
2023-03-28T12:03:43.271Z,102544.91
2023-03-28T12:06:30.956Z,102542.25
2023-03-28T12:09:07.054Z,102529.41
2023-03-28T12:14:50.674Z,102530.22
2023-03-28T12:17:35.189Z,102531.81
2023-03-28T12:20:02.735Z,102534.69
2023-03-28T12:22:52.813Z,102531.06
2023-03-28T12:25:51.212Z,102523.09
2023-03-28T12:28:43.849Z,102525.16
2023-03-28T12:31:33.588Z,102513.88
2023-03-28T12:34:43.743Z,102512.72
2023-03-28T12:37:29.343Z,102503.41
2023-03-28T12:40:33.530Z,102501.41
2023-03-28T12:43:01.853Z,102486.97
2023-03-28T12:45:43.619Z,102494.53
2023-03-28T12:48:19.724Z,102489.75
2023-03-28T12:50:56.770Z,102497.41
2023-03-28T12:53:32.762Z,102491.69
2023-03-28T12:56:03.637Z,102499.59
2023-03-28T12:58:36.777Z,102489.66
2023-03-28T13:01:39.350Z,102482.72
2023-03-28T13:04:46.700Z,102478.84
2023-03-28T13:07:35.781Z,102480.88
2023-03-28T13:10:59.893Z,102477.19
2023-03-28T13:13:40.497Z,102473.91
2023-03-28T13:16:40.831Z,102468.78
2023-03-28T13:19:18.433Z,102471.78
2023-03-28T13:21:58.471Z,102463.63
2023-03-28T13:24:26.163Z,102462.44
2023-03-28T13:26:59.976Z,102466.09
2023-03-28T13:29:48.023Z,102465.53
2023-03-28T13:32:23.822Z,102468.34
2023-03-28T13:35:04.456Z,102464.06
2023-03-28T13:37:44.199Z,102465.00
2023-03-28T13:40:50.881Z,102461.19
2023-03-28T13:43:29.723Z,102456.13
2023-03-28T13:46:02.020Z,102455.94
2023-03-28T13:48:35.063Z,102452.19
2023-03-28T13:51:07.012Z,102454.47
2023-03-28T13:53:47.412Z,102456.00
2023-03-28T13:56:28.113Z,102445.38
2023-03-28T13:58:58.866Z,102447.47
2023-03-28T14:01:44.061Z,102441.81
2023-03-28T14:04:19.756Z,102441.34
2023-03-28T14:07:02.951Z,102443.09
2023-03-28T14:09:33.248Z,102438.75
2023-03-28T14:12:14.578Z,102434.38
2023-03-28T14:14:59.238Z,102427.09
2023-03-28T14:17:33.886Z,102421.59
2023-03-28T14:20:05.787Z,102423.53
2023-03-28T14:22:45.759Z,102418.84
2023-03-28T14:25:22.926Z,102422.69
2023-03-28T14:27:52.789Z,102440.44
2023-03-28T14:30:39.425Z,102427.13
2023-03-28T14:33:33.165Z,102420.44
2023-03-28T14:36:06.584Z,102431.38
2023-03-28T14:38:36.378Z,102431.72
2023-03-28T14:41:25.176Z,102429.69
2023-03-28T14:43:55.642Z,102423.00
2023-03-28T14:46:26.922Z,102415.16
2023-03-28T14:48:59.649Z,102414.28
2023-03-28T14:51:31.026Z,102422.81
2023-03-28T14:53:58.147Z,102410.06
2023-03-28T14:56:35.055Z,102407.16
2023-03-28T14:59:04.593Z,102410.34
2023-03-28T15:01:34.037Z,102410.13
2023-03-28T15:04:19.182Z,102408.72
2023-03-28T15:06:55.855Z,102399.75
2023-03-28T15:09:34.240Z,102401.31
2023-03-28T15:12:07.060Z,102408.44
2023-03-28T15:14:41.630Z,102406.16
2023-03-28T15:17:24.106Z,102412.28
2023-03-28T15:20:14.048Z,102407.31
2023-03-28T15:22:42.076Z,102402.34
2023-03-28T15:25:16.392Z,102403.41
2023-03-28T15:27:54.577Z,102404.81
2023-03-28T15:30:54.916Z,102395.88
2023-03-28T15:33:26.212Z,102392.94
2023-03-28T15:36:20.120Z,102398.09
2023-03-28T15:38:50.674Z,102385.25
2023-03-28T15:41:34.865Z,102383.09
2023-03-28T15:44:28.806Z,102383.63
2023-03-28T15:47:03.833Z,102396.84
2023-03-28T15:49:38.928Z,102373.44
2023-03-28T15:52:21.055Z,102371.00
2023-03-28T15:54:56.076Z,102375.88
2023-03-28T15:57:40.019Z,102368.06
2023-03-28T16:00:30.710Z,102374.94
2023-03-28T16:03:24.350Z,102352.63
2023-03-28T16:06:23.110Z,102368.03
2023-03-28T16:09:14.758Z,102361.78
2023-03-28T16:11:42.081Z,102355.53
2023-03-28T16:14:36.524Z,102356.19
2023-03-28T16:17:29.189Z,102360.53
2023-03-28T16:20:20.342Z,102373.97
2023-03-28T16:22:48.958Z,102371.66
2023-03-28T16:25:16.069Z,102368.28
2023-03-28T16:27:43.747Z,102373.47
2023-03-28T16:30:27.368Z,102364.69
2023-03-28T16:32:56.907Z,102361.41
2023-03-28T16:35:25.091Z,102364.03
2023-03-28T16:37:53.220Z,102373.59
2023-03-28T16:40:29.406Z,102376.81
2023-03-28T16:43:00.249Z,102375.31
2023-03-28T16:45:30.592Z,102376.00
2023-03-28T16:47:58.068Z,102387.31
2023-03-28T16:50:25.283Z,102378.75
2023-03-28T16:52:52.687Z,102394.91
2023-03-28T16:55:19.781Z,102385.28
2023-03-28T16:57:49.360Z,102387.88
2023-03-28T17:00:20.266Z,102394.75
2023-03-28T17:02:48.203Z,102387.69
2023-03-28T17:05:16.972Z,102387.81
2023-03-28T17:07:44.182Z,102387.25
2023-03-28T17:10:14.609Z,102391.69
2023-03-28T17:12:47.987Z,102397.38
2023-03-28T17:15:15.592Z,102406.09
2023-03-28T17:17:44.195Z,102396.41
2023-03-28T17:20:11.924Z,102401.69
2023-03-28T17:22:42.576Z,102404.34
2023-03-28T17:25:10.211Z,102403.84
2023-03-28T17:27:40.744Z,102406.44
2023-03-28T17:30:16.495Z,102404.81
2023-03-28T17:32:43.897Z,102400.50
2023-03-28T17:35:12.400Z,102412.75
2023-03-28T17:37:43.217Z,102413.50
2023-03-28T17:40:10.986Z,102416.41
2023-03-28T17:42:38.528Z,102423.44
2023-03-28T17:45:09.279Z,102405.78
2023-03-28T17:47:36.678Z,102415.41
2023-03-28T17:50:03.966Z,102425.59
2023-03-28T17:52:31.995Z,102418.81
2023-03-28T17:55:15.176Z,102413.06
2023-03-28T17:57:56.633Z,102422.47
2023-03-28T18:00:29.022Z,102413.03
2023-03-28T18:03:17.413Z,102420.94
2023-03-28T18:06:02.590Z,102419.66
2023-03-28T18:08:31.748Z,102416.72
2023-03-28T18:11:08.100Z,102422.81
2023-03-28T18:16:20.035Z,102420.50
2023-03-28T18:18:55.099Z,102425.06
2023-03-28T18:21:22.297Z,102422.72
2023-03-28T18:23:49.786Z,102417.97
2023-03-28T18:26:17.498Z,102419.91
2023-03-28T18:28:47.477Z,102424.31
2023-03-28T18:31:19.715Z,102419.66
2023-03-28T18:33:49.204Z,102423.00
2023-03-28T18:36:19.297Z,102428.84
2023-03-28T18:38:50.708Z,102433.00
2023-03-28T18:41:17.874Z,102449.78
2023-03-28T18:43:45.839Z,102450.91
2023-03-28T18:46:16.357Z,102444.25
2023-03-28T18:48:45.029Z,102442.09
2023-03-28T18:51:12.631Z,102437.78
2023-03-28T18:53:47.645Z,102456.63
2023-03-28T18:56:15.383Z,102454.47
2023-03-28T18:58:43.998Z,102438.34
2023-03-28T19:01:14.108Z,102446.28
2023-03-28T19:03:43.282Z,102448.97
2023-03-28T19:06:19.000Z,102449.56
2023-03-28T19:08:47.617Z,102455.66
2023-03-28T19:11:17.140Z,102458.66
2023-03-28T19:13:44.414Z,102460.47
2023-03-28T19:16:16.684Z,102457.59
2023-03-28T19:18:48.955Z,102457.22
2023-03-28T19:21:17.294Z,102452.31
2023-03-28T19:23:51.717Z,102453.84
2023-03-28T19:26:25.160Z,102469.88
2023-03-28T19:29:05.013Z,102463.97
2023-03-28T19:31:35.768Z,102467.00
2023-03-28T19:34:03.558Z,102465.25
2023-03-28T19:36:33.936Z,102470.16
2023-03-28T19:39:02.437Z,102457.28
2023-03-28T19:41:31.729Z,102464.38
2023-03-28T19:44:04.558Z,102466.47
2023-03-28T19:46:35.468Z,102469.16
2023-03-28T19:49:07.190Z,102475.34
2023-03-28T19:51:37.759Z,102464.66
2023-03-28T19:54:05.141Z,102472.41
2023-03-28T19:56:32.626Z,102478.22
2023-03-28T19:58:59.894Z,102480.88
2023-03-28T20:01:27.415Z,102471.88
2023-03-28T20:03:54.674Z,102474.00
2023-03-28T20:06:23.877Z,102483.59
2023-03-28T20:08:54.119Z,102494.78
2023-03-28T20:11:22.344Z,102488.31
2023-03-28T20:13:52.640Z,102481.66
2023-03-28T20:16:23.341Z,102496.03
2023-03-28T20:21:57.264Z,102488.28
2023-03-28T20:24:27.782Z,102489.25
2023-03-28T20:26:57.657Z,102489.19
2023-03-28T20:29:31.373Z,102487.13
2023-03-28T20:35:10.150Z,102487.41
2023-03-28T20:37:38.046Z,102498.03
2023-03-28T20:40:17.576Z,102496.63
2023-03-28T20:42:54.547Z,102503.03
2023-03-28T20:45:29.432Z,102497.81
2023-03-28T20:48:06.453Z,102503.00
2023-03-28T20:50:41.711Z,102497.75
2023-03-28T20:53:15.280Z,102507.34
2023-03-28T20:55:45.784Z,102513.31
2023-03-28T20:58:14.400Z,102510.91
2023-03-28T21:00:48.020Z,102516.13
2023-03-28T21:03:18.934Z,102517.44
2023-03-28T21:05:58.425Z,102516.28
2023-03-28T21:08:31.260Z,102506.25
2023-03-28T21:10:59.013Z,102502.47
2023-03-28T21:13:28.629Z,102508.19
2023-03-28T21:15:58.829Z,102508.13
2023-03-28T21:18:26.311Z,102495.03
2023-03-28T21:20:56.828Z,102496.31
2023-03-28T21:23:24.844Z,102488.03
2023-03-28T21:25:55.842Z,102495.50
2023-03-28T21:28:23.644Z,102499.81
2023-03-28T21:31:02.034Z,102498.13
2023-03-28T21:33:30.643Z,102485.00
2023-03-28T21:36:02.138Z,102486.88
2023-03-28T21:38:31.020Z,102489.34
2023-03-28T21:40:59.566Z,102481.75
2023-03-28T21:43:31.683Z,102481.28
2023-03-28T21:45:59.554Z,102488.88
2023-03-28T21:48:27.278Z,102490.78
2023-03-28T21:51:00.043Z,102483.19
2023-03-28T21:53:30.235Z,102474.63
2023-03-28T21:55:59.447Z,102489.59
2023-03-28T21:58:33.308Z,102486.34
2023-03-28T22:01:03.103Z,102480.50
2023-03-28T22:03:31.887Z,102488.66
2023-03-28T22:05:59.138Z,102493.94
2023-03-28T22:08:27.566Z,102492.28
2023-03-28T22:11:01.601Z,102480.91
2023-03-28T22:13:30.017Z,102484.53
2023-03-28T22:16:01.013Z,102486.19
2023-03-28T22:18:30.820Z,102489.88
2023-03-28T22:21:02.669Z,102488.13
2023-03-28T22:23:30.218Z,102488.19
2023-03-28T22:25:58.782Z,102483.81
2023-03-28T22:28:26.960Z,102488.81
2023-03-28T22:30:55.417Z,102487.13
2023-03-28T22:33:25.694Z,102484.41
2023-03-28T22:35:53.467Z,102481.78
2023-03-28T22:38:20.902Z,102464.25
2023-03-28T22:40:50.398Z,102486.81
2023-03-28T22:43:20.635Z,102486.78
2023-03-28T22:45:47.898Z,102474.19
2023-03-28T22:48:15.776Z,102464.41
2023-03-28T22:50:44.565Z,102478.66
2023-03-28T22:53:16.425Z,102488.13
2023-03-28T22:55:47.193Z,102478.66
2023-03-28T22:58:15.063Z,102473.34
2023-03-28T23:00:46.285Z,102475.03
2023-03-28T23:03:14.344Z,102484.56
2023-03-28T23:05:41.596Z,102489.94
2023-03-28T23:08:10.706Z,102473.22
2023-03-28T23:10:38.604Z,102479.28
2023-03-28T23:13:06.088Z,102480.03
2023-03-28T23:15:33.307Z,102471.06
2023-03-28T23:18:04.039Z,102473.06
2023-03-28T23:20:31.649Z,102479.19
2023-03-28T23:22:58.939Z,102472.31
2023-03-28T23:25:30.136Z,102465.31
2023-03-28T23:27:57.425Z,102462.47
2023-03-28T23:30:24.568Z,102467.03
2023-03-28T23:32:54.297Z,102461.63
2023-03-28T23:35:24.700Z,102461.63
2023-03-28T23:37:53.443Z,102452.66
2023-03-28T23:40:23.496Z,102456.03
2023-03-28T23:42:50.924Z,102459.59
2023-03-28T23:45:18.585Z,102460.50
2023-03-28T23:47:46.363Z,102458.00
2023-03-28T23:50:14.005Z,102455.50
2023-03-28T23:52:41.253Z,102459.81
2023-03-28T23:55:09.222Z,102462.34
2023-03-28T23:57:36.992Z,102471.75
